Flight Track Log - Related Links

Times and Time Zones

All times are in EDT time to prevent confusion due to time zone crossing. See the SKW4542 flight status page for this flight to view local times or setup timezone preferences in your user account.

Time Position Orientation Groundspeed Altitude Reporting Facility
EDT Latitude Longitude Course Direction KTS MPH feet Rate Location/Type
Tue 07:15:04 PM 40.8100 -111.9639 37° Northeast 184 212 5,200  Level Salt Lake Center
Tue 07:15:46 PM 40.8456 -111.9689 354° North 188 216 6,600 1,865 Climbing Salt Lake Center
Tue 07:16:18 PM 40.8744 -111.9711 357° North 214 246 7,500 2,065 Climbing Salt Lake Center
Tue 07:17:00 PM 41.0958 -111.9751 56° Northeast  Level FlightAware Approximate
Tue 07:17:19 PM 40.9486 -111.9825 353° North 266 306 9,800  Level Salt Lake Center
Tue 07:18:00 PM 41.1699 -111.8709 43° Northeast  Level FlightAware Approximate
Tue 07:18:21 PM 41.0289 -111.9886 357° North 284 327 12,800  Level Salt Lake Center
Tue 07:19:00 PM 41.2568 -111.7932 37° Northeast  Level FlightAware Approximate
Tue 07:19:22 PM 41.1119 -111.9908 359° North 293 337 15,200  Level Salt Lake Center
Tue 07:20:00 PM 41.3481 -111.7186 37° Northeast  Level FlightAware Approximate
Tue 07:20:24 PM 41.1981 -111.9931 359° North 307 353 17,400  Level Salt Lake Center
Tue 07:21:25 PM 41.2836 -111.9958 359° North 306 352 19,300 1,854 Climbing Salt Lake Center
Tue 07:22:27 PM 41.3708 -111.9981 359° North 311 358 21,200 1,984 Climbing Salt Lake Center
Tue 07:23:29 PM 41.4744 -112.0014 359° North 310 357 23,400 1,366 Climbing Salt Lake Center
Tue 07:24:30 PM 41.5642 -112.0050 358° North 321 369 24,000 293 Climbing Salt Lake Center
Tue 07:25:32 PM 41.6569 -112.0083 358° North 333 383 24,000  Level Salt Lake Center
Tue 07:26:34 PM 41.7486 -112.0117 358° North 331 381 24,000  Level Salt Lake Center
Tue 07:27:35 PM 41.8403 -112.0142 359° North 328 377 24,000  Level Salt Lake Center
Tue 07:28:37 PM 41.9331 -112.0164 359° North 333 383 24,000  Level Salt Lake Center
Tue 07:29:39 PM 42.0242 -112.0197 358° North 330 380 24,000  Level Salt Lake Center
Tue 07:30:40 PM 42.1161 -112.0225 359° North 330 380 24,000  Level Salt Lake Center
Tue 07:31:42 PM 42.2258 -112.0258 359° North 331 381 24,000  Level Salt Lake Center
Tue 07:32:44 PM 42.3167 -112.0281 359° North 327 376 24,000  Level Salt Lake Center
Tue 07:33:46 PM 42.4075 -112.0331 358° North 328 377 24,000  Level Salt Lake Center
Tue 07:34:47 PM 42.4981 -112.0369 358° North 326 375 24,000  Level Salt Lake Center
Tue 07:35:49 PM 42.5892 -112.0389 359° North 326 375 24,000 -435 Level Salt Lake Center
Tue 07:36:51 PM 42.6806 -112.0411 359° North 327 376 23,100 -1,561 Descending Salt Lake Center
Tue 07:37:52 PM 42.7731 -112.0456 358° North 319 367 20,800 -2,341 Descending Salt Lake Center
Tue 07:38:54 PM 42.8728 -112.0492 358° North 319 367 18,300 -2,129 Descending Salt Lake Center
Tue 07:39:56 PM 42.9553 -112.0478 North 314 361 16,400 -2,032 Descending Salt Lake Center
Tue 07:40:58 PM 43.0500 -112.0506 359° North 306 352 14,100 -2,081 Descending Salt Lake Center
Tue 07:42:00 PM 43.1294 -112.0553 358° North 300 345 12,100 -2,000 Descending Salt Lake Center
Tue 07:43:01 PM 43.2192 -112.0461 North 293 337 10,000 -1,707 Descending Salt Lake Center
Tue 07:44:03 PM 43.2925 -112.0336 North 285 328 8,600 -1,306 Descending Salt Lake Center
Tue 07:45:05 PM 43.3661 -112.0214 North 281 323 7,300 -927 Descending Salt Lake Center
Tue 07:46:06 PM 43.4447 -112.0103 North 267 307 6,700 -390 Descending Salt Lake Center
Tue 07:47:08 PM 43.5000 -111.9803 21° North 240 276 6,500 -194 Descending Salt Lake Center

Login

Don't have an account? Register now (free) for customized features, flight alerts, and more!